Time;durP1;ratioP1;P1;durP2;ratioP2;P2;SDS_P1;SDS_P2;PMS_P1;PMS_P2;Temp;Humidity;BMP_temperature;BMP_pressure;BME280_temperature;BME280_humidity;BME280_pressure;Samples;Min_cycle;Max_cycle;Signal;HPM_P1;HPM_P2
2023/07/22 00:03:54;;;;;;;9.73;5.55;;;;;;;;;;9982081;28;20050;-43
2023/07/22 00:08:46;;;;;;;5.90;3.85;;;;;;;;;;9971700;28;20445;-45
2023/07/22 00:13:38;;;;;;;9.30;5.57;;;;;;;;;;9990084;28;20472;-43
2023/07/22 00:18:30;;;;;;;4.85;4.00;;;;;;;;;;9978354;28;20034;-44
2023/07/22 00:23:23;;;;;;;4.22;3.35;;;;;;;;;;9992781;28;20053;-45
2023/07/22 00:28:15;;;;;;;4.53;4.03;;;;;;;;;;9969009;28;20096;-48
2023/07/22 00:33:08;;;;;;;5.97;3.55;;;;;;;;;;9992188;28;20050;-45
2023/07/22 00:38:00;;;;;;;8.95;4.07;;;;;;;;;;9984460;28;20125;-46
2023/07/22 00:42:52;;;;;;;4.00;3.58;;;;;;;;;;9977502;28;20062;-46
2023/07/22 00:47:44;;;;;;;4.72;3.58;;;;;;;;;;9983237;28;20054;-45
2023/07/22 00:52:37;;;;;;;3.30;3.00;;;;;;;;;;9948555;28;20082;-48
2023/07/22 00:57:29;;;;;;;8.07;4.45;;;;;;;;;;9968874;28;20078;-47
2023/07/22 01:02:22;;;;;;;4.85;4.10;;;;;;;;;;9976271;28;20046;-47
2023/07/22 01:07:14;;;;;;;5.05;3.80;;;;;;;;;;9991378;28;20097;-46
2023/07/22 01:12:07;;;;;;;10.30;3.58;;;;;;;;;;9980187;28;20058;-45
2023/07/22 01:17:04;;;;;;;4.13;3.65;;;;;;;;;;9989914;28;20507;-45
2023/07/22 01:22:14;;;;;;;5.30;3.78;;;;;;;;;;9996211;28;20037;-45
2023/07/22 01:27:08;;;;;;;5.00;3.88;;;;;;;;;;9974497;28;20050;-43
2023/07/22 01:32:00;;;;;;;4.38;3.67;;;;;;;;;;9990198;28;20042;-45
2023/07/22 01:36:51;;;;;;;4.45;3.55;;;;;;;;;;9992126;28;20476;-44
2023/07/22 01:41:44;;;;;;;3.42;3.03;;;;;;;;;;10004710;28;20423;-45
2023/07/22 01:46:36;;;;;;;4.80;3.40;;;;;;;;;;9990716;28;20081;-44
2023/07/22 01:51:28;;;;;;;4.38;3.40;;;;;;;;;;9973040;28;20129;-44
2023/07/22 01:56:20;;;;;;;8.25;3.67;;;;;;;;;;9982110;28;20038;-45
2023/07/22 02:01:16;;;;;;;4.13;3.60;;;;;;;;;;9986023;28;20129;-46
2023/07/22 02:06:08;;;;;;;5.07;3.30;;;;;;;;;;9971526;28;20061;-43
2023/07/22 02:11:04;;;;;;;4.75;3.38;;;;;;;;;;9931566;28;1127867;-45
2023/07/22 02:15:56;;;;;;;7.85;4.13;;;;;;;;;;9978081;28;20117;-43
2023/07/22 02:20:48;;;;;;;6.50;4.03;;;;;;;;;;9990836;28;20472;-46
2023/07/22 02:25:40;;;;;;;3.88;3.45;;;;;;;;;;9991163;28;20121;-42
2023/07/22 02:30:36;;;;;;;4.55;3.42;;;;;;;;;;9953500;28;20500;-44
2023/07/22 02:35:28;;;;;;;5.00;3.22;;;;;;;;;;9966296;28;20133;-46
2023/07/22 02:40:20;;;;;;;5.82;3.35;;;;;;;;;;9966268;28;20066;-45
2023/07/22 02:45:12;;;;;;;6.85;3.70;;;;;;;;;;9980042;28;20093;-46
2023/07/22 02:50:06;;;;;;;5.68;3.10;;;;;;;;;;9941648;28;20380;-45
2023/07/22 02:55:12;;;;;;;5.95;4.13;;;;;;;;;;9956156;28;20043;-43
2023/07/22 03:00:08;;;;;;;4.93;3.80;;;;;;;;;;9965976;28;20042;-44
2023/07/22 03:05:00;;;;;;;5.18;3.03;;;;;;;;;;9971219;28;20045;-44
2023/07/22 03:09:52;;;;;;;4.75;3.53;;;;;;;;;;9951221;28;20058;-44
2023/07/22 03:14:45;;;;;;;3.65;3.20;;;;;;;;;;9968030;28;20055;-44
2023/07/22 03:19:37;;;;;;;4.18;3.75;;;;;;;;;;9987342;28;20073;-43
2023/07/22 03:24:29;;;;;;;5.80;3.63;;;;;;;;;;9988426;28;20043;-45
2023/07/22 03:29:22;;;;;;;4.80;3.30;;;;;;;;;;9982916;28;20041;-48
2023/07/22 03:34:14;;;;;;;4.10;3.53;;;;;;;;;;9960541;28;20465;-44
2023/07/22 03:39:07;;;;;;;4.75;3.75;;;;;;;;;;9968112;28;20046;-46
2023/07/22 03:43:59;;;;;;;5.40;3.85;;;;;;;;;;9966789;28;20397;-45
2023/07/22 03:48:51;;;;;;;5.43;4.00;;;;;;;;;;9973423;28;20101;-46
2023/07/22 03:53:43;;;;;;;3.63;3.33;;;;;;;;;;9965219;28;20077;-44
2023/07/22 03:58:37;;;;;;;4.88;3.13;;;;;;;;;;9950827;28;20074;-42
2023/07/22 04:03:29;;;;;;;3.58;2.88;;;;;;;;;;9959945;28;20085;-46
2023/07/22 04:08:21;;;;;;;5.38;3.63;;;;;;;;;;9964126;28;20101;-46
2023/07/22 04:13:13;;;;;;;4.93;3.80;;;;;;;;;;9951916;28;20486;-43
2023/07/22 04:18:05;;;;;;;3.97;3.58;;;;;;;;;;9962348;28;20050;-45
2023/07/22 04:22:56;;;;;;;5.75;3.42;;;;;;;;;;9983895;28;20050;-45
2023/07/22 04:27:48;;;;;;;4.43;3.08;;;;;;;;;;9984838;28;20105;-47
2023/07/22 04:32:40;;;;;;;4.97;3.05;;;;;;;;;;9986409;28;20038;-45
2023/07/22 04:37:32;;;;;;;4.63;3.47;;;;;;;;;;9987683;28;20042;-42
2023/07/22 04:42:25;;;;;;;4.75;3.08;;;;;;;;;;9987044;28;20042;-46
2023/07/22 04:47:17;;;;;;;4.28;3.20;;;;;;;;;;9982044;28;20038;-46
2023/07/22 04:52:09;;;;;;;3.60;2.97;;;;;;;;;;9956328;28;20050;-46
2023/07/22 04:57:01;;;;;;;5.53;4.18;;;;;;;;;;9948919;28;20050;-46
2023/07/22 05:01:53;;;;;;;5.03;3.10;;;;;;;;;;9959954;28;20046;-43
2023/07/22 05:06:45;;;;;;;5.60;3.83;;;;;;;;;;9948925;28;20122;-45
2023/07/22 05:11:37;;;;;;;3.72;3.30;;;;;;;;;;9958690;28;20432;-46
2023/07/22 05:16:29;;;;;;;3.78;3.33;;;;;;;;;;9954094;28;20078;-45
2023/07/22 05:21:21;;;;;;;5.50;3.00;;;;;;;;;;9972664;28;20061;-44
2023/07/22 05:26:13;;;;;;;3.53;2.97;;;;;;;;;;9955230;28;20055;-44
2023/07/22 05:31:05;;;;;;;4.03;3.58;;;;;;;;;;9945528;28;20070;-44
2023/07/22 05:35:56;;;;;;;5.05;3.28;;;;;;;;;;9963354;28;20046;-45
2023/07/22 05:40:48;;;;;;;4.38;3.60;;;;;;;;;;9953345;28;20081;-46
2023/07/22 05:45:40;;;;;;;5.35;3.97;;;;;;;;;;9948795;28;20039;-42
2023/07/22 05:50:32;;;;;;;4.18;3.30;;;;;;;;;;9961912;28;20150;-46
2023/07/22 05:55:24;;;;;;;3.78;3.20;;;;;;;;;;9946014;28;20042;-47
2023/07/22 06:00:17;;;;;;;3.65;2.72;;;;;;;;;;9960405;28;20105;-47
2023/07/22 06:05:09;;;;;;;3.72;3.40;;;;;;;;;;9952912;28;20043;-46
2023/07/22 06:10:01;;;;;;;3.60;3.15;;;;;;;;;;9955248;28;20058;-45
2023/07/22 06:14:53;;;;;;;4.60;3.25;;;;;;;;;;9987903;28;20046;-47
2023/07/22 06:19:45;;;;;;;4.18;3.70;;;;;;;;;;9985147;28;20061;-47
2023/07/22 06:24:37;;;;;;;3.75;3.30;;;;;;;;;;9963996;28;20046;-41
2023/07/22 06:29:29;;;;;;;5.90;3.50;;;;;;;;;;9962566;28;20065;-47
2023/07/22 06:34:21;;;;;;;3.83;3.17;;;;;;;;;;9977577;28;20054;-42
2023/07/22 06:39:13;;;;;;;6.03;3.15;;;;;;;;;;9973716;28;20039;-46
2023/07/22 06:44:05;;;;;;;4.13;3.22;;;;;;;;;;9970266;28;20062;-46
2023/07/22 06:48:56;;;;;;;3.88;3.25;;;;;;;;;;9972706;28;20116;-44
2023/07/22 06:53:48;;;;;;;5.90;3.75;;;;;;;;;;9966562;28;20038;-47
2023/07/22 06:58:40;;;;;;;3.22;2.92;;;;;;;;;;9979182;28;20362;-46
2023/07/22 07:03:32;;;;;;;3.83;3.40;;;;;;;;;;9974038;28;20418;-45
2023/07/22 07:08:24;;;;;;;5.40;3.42;;;;;;;;;;9975626;28;20042;-46
2023/07/22 07:13:16;;;;;;;4.57;3.10;;;;;;;;;;9971659;28;20058;-45
2023/07/22 07:18:08;;;;;;;4.55;4.10;;;;;;;;;;9976409;28;20046;-45
2023/07/22 07:22:59;;;;;;;3.67;3.35;;;;;;;;;;9974261;28;20050;-45
2023/07/22 07:27:51;;;;;;;4.88;3.03;;;;;;;;;;9978598;28;20059;-44
2023/07/22 07:32:43;;;;;;;3.42;3.13;;;;;;;;;;9983595;28;20077;-45
2023/07/22 07:37:35;;;;;;;5.40;3.42;;;;;;;;;;9982708;28;20148;-42
2023/07/22 07:42:27;;;;;;;3.83;3.13;;;;;;;;;;9987883;28;20096;-45
2023/07/22 07:47:19;;;;;;;5.57;2.80;;;;;;;;;;9977122;28;20387;-43
2023/07/22 07:52:11;;;;;;;6.88;3.40;;;;;;;;;;9980059;28;20500;-45
2023/07/22 07:57:03;;;;;;;2.70;2.50;;;;;;;;;;9978223;28;20046;-43
2023/07/22 08:01:55;;;;;;;4.30;2.75;;;;;;;;;;9964691;28;20082;-44
2023/07/22 08:06:47;;;;;;;7.88;3.55;;;;;;;;;;9979312;28;20480;-48
2023/07/22 08:11:39;;;;;;;3.28;2.97;;;;;;;;;;9973154;28;20065;-44
2023/07/22 08:16:31;;;;;;;3.65;3.35;;;;;;;;;;9972835;28;20120;-44
2023/07/22 08:21:23;;;;;;;4.25;3.63;;;;;;;;;;9971989;28;20057;-42
2023/07/22 08:26:17;;;;;;;4.55;3.67;;;;;;;;;;9975646;28;20046;-44
2023/07/22 08:31:09;;;;;;;3.65;3.03;;;;;;;;;;9972885;28;20550;-42
2023/07/22 08:36:02;;;;;;;4.75;3.72;;;;;;;;;;9972862;28;20058;-45
2023/07/22 08:40:54;;;;;;;6.07;3.60;;;;;;;;;;9976241;28;20054;-45
2023/07/22 08:45:47;;;;;;;4.72;3.10;;;;;;;;;;9972433;28;20047;-45
2023/07/22 08:50:47;;;;;;;4.88;3.47;;;;;;;;;;9972588;28;20069;-46
2023/07/22 08:55:40;;;;;;;7.03;3.25;;;;;;;;;;9973561;28;20052;-41
2023/07/22 09:00:32;;;;;;;8.13;5.18;;;;;;;;;;9960430;28;20054;-45
2023/07/22 09:05:24;;;;;;;4.93;3.53;;;;;;;;;;9979888;28;20042;-45
2023/07/22 09:10:16;;;;;;;6.85;4.38;;;;;;;;;;9953917;28;20639;-45
2023/07/22 09:15:10;;;;;;;3.78;3.38;;;;;;;;;;9975308;28;20066;-45
2023/07/22 09:20:03;;;;;;;4.50;3.90;;;;;;;;;;9969532;28;20049;-45
2023/07/22 09:25:17;;;;;;;4.97;3.47;;;;;;;;;;9964436;28;20093;-46
2023/07/22 09:30:22;;;;;;;4.85;3.67;;;;;;;;;;9966223;28;20081;-45
2023/07/22 09:35:14;;;;;;;4.65;3.83;;;;;;;;;;9973249;28;20057;-45
2023/07/22 09:40:23;;;;;;;6.88;3.22;;;;;;;;;;9983915;28;20046;-49
2023/07/22 09:45:16;;;;;;;6.20;5.53;;;;;;;;;;9975426;28;20156;-45
2023/07/22 09:50:17;;;;;;;8.30;4.45;;;;;;;;;;9974673;28;20085;-46
2023/07/22 09:55:09;;;;;;;8.20;4.75;;;;;;;;;;9978231;28;20070;-45
2023/07/22 10:00:01;;;;;;;9.82;7.20;;;;;;;;;;9985997;28;20133;-46
2023/07/22 10:05:03;;;;;;;10.98;6.50;;;;;;;;;;9980916;28;20050;-45
2023/07/22 10:09:56;;;;;;;13.57;6.30;;;;;;;;;;9977973;28;20079;-46
2023/07/22 10:14:48;;;;;;;10.15;6.50;;;;;;;;;;9986100;28;20046;-46
2023/07/22 10:19:41;;;;;;;7.97;6.50;;;;;;;;;;9975770;28;20050;-45
2023/07/22 10:24:32;;;;;;;14.15;7.55;;;;;;;;;;9985826;28;20054;-44
2023/07/22 10:29:25;;;;;;;10.85;6.72;;;;;;;;;;9973326;28;20066;-45
2023/07/22 10:34:21;;;;;;;15.10;7.40;;;;;;;;;;9956201;28;20058;-46
2023/07/22 10:39:25;;;;;;;18.48;8.98;;;;;;;;;;9966902;28;20130;-45
2023/07/22 10:44:17;;;;;;;9.13;8.23;;;;;;;;;;9952176;28;20096;-44
2023/07/22 10:49:16;;;;;;;10.30;7.47;;;;;;;;;;9976213;28;20094;-44
2023/07/22 10:54:15;;;;;;;8.73;7.82;;;;;;;;;;9951119;28;20108;-44
2023/07/22 10:59:12;;;;;;;9.43;7.53;;;;;;;;;;9963678;28;20050;-42
2023/07/22 11:04:12;;;;;;;11.90;7.63;;;;;;;;;;9974093;28;20089;-43
2023/07/22 11:09:05;;;;;;;12.15;8.45;;;;;;;;;;9962165;28;20385;-46
2023/07/22 11:14:20;;;;;;;10.82;8.35;;;;;;;;;;9960321;28;20432;-47
2023/07/22 11:19:16;;;;;;;9.45;8.00;;;;;;;;;;9958142;28;20077;-48
2023/07/22 11:24:08;;;;;;;11.88;7.70;;;;;;;;;;9959693;28;20047;-46
2023/07/22 11:29:01;;;;;;;10.25;7.30;;;;;;;;;;9957690;28;20134;-48
2023/07/22 11:33:53;;;;;;;9.35;7.85;;;;;;;;;;9960762;28;20045;-49
2023/07/22 11:38:45;;;;;;;11.25;7.78;;;;;;;;;;9937258;28;20046;-46
2023/07/22 11:43:37;;;;;;;10.30;7.38;;;;;;;;;;9953549;28;20050;-48
2023/07/22 11:48:29;;;;;;;18.48;8.02;;;;;;;;;;9968659;28;20358;-48
2023/07/22 11:53:20;;;;;;;11.77;7.22;;;;;;;;;;9951502;28;20471;-48
2023/07/22 11:58:12;;;;;;;9.20;7.50;;;;;;;;;;9963081;28;20073;-48
2023/07/22 12:03:07;;;;;;;9.38;7.25;;;;;;;;;;9946439;28;20109;-46
2023/07/22 12:07:59;;;;;;;9.88;6.65;;;;;;;;;;9956782;28;20074;-48
2023/07/22 12:12:51;;;;;;;11.85;6.20;;;;;;;;;;9978425;28;20085;-44
2023/07/22 12:18:04;;;;;;;10.57;7.28;;;;;;;;;;9963515;28;20396;-46
2023/07/22 12:22:57;;;;;;;10.98;8.00;;;;;;;;;;9949490;28;20555;-47
2023/07/22 12:27:49;;;;;;;10.50;7.72;;;;;;;;;;9972343;28;20411;-48
2023/07/22 12:32:41;;;;;;;11.05;8.43;;;;;;;;;;9959750;28;20038;-45
2023/07/22 12:37:34;;;;;;;9.13;7.88;;;;;;;;;;9958516;28;20034;-47
2023/07/22 12:42:26;;;;;;;15.73;12.25;;;;;;;;;;9954949;28;20038;-44
2023/07/22 12:47:18;;;;;;;14.02;11.00;;;;;;;;;;9962038;28;20549;-44
2023/07/22 12:52:11;;;;;;;15.25;11.15;;;;;;;;;;9973890;28;20412;-41
2023/07/22 12:57:04;;;;;;;12.90;10.60;;;;;;;;;;9956745;28;20073;-43
2023/07/22 13:01:57;;;;;;;13.00;9.75;;;;;;;;;;9974344;28;20093;-44
2023/07/22 13:06:51;;;;;;;14.95;9.57;;;;;;;;;;9976886;28;20051;-45
2023/07/22 13:11:43;;;;;;;13.55;10.02;;;;;;;;;;9964551;28;20393;-45
2023/07/22 13:16:35;;;;;;;14.25;10.30;;;;;;;;;;9986035;28;20038;-43
2023/07/22 13:21:27;;;;;;;11.93;10.65;;;;;;;;;;9991078;28;20453;-45
2023/07/22 13:26:19;;;;;;;13.13;9.15;;;;;;;;;;9982472;28;20072;-44
2023/07/22 13:31:11;;;;;;;10.88;9.80;;;;;;;;;;9978587;28;20050;-46
2023/07/22 13:36:03;;;;;;;20.35;10.73;;;;;;;;;;9975039;28;20054;-44
2023/07/22 13:40:55;;;;;;;11.40;9.23;;;;;;;;;;9985108;28;20085;-42
2023/07/22 13:45:47;;;;;;;10.57;8.93;;;;;;;;;;9965798;28;20097;-45
2023/07/22 13:50:40;;;;;;;11.23;10.07;;;;;;;;;;9965091;28;20051;-43
2023/07/22 13:55:33;;;;;;;10.10;9.18;;;;;;;;;;9977671;28;20047;-45
2023/07/22 14:00:25;;;;;;;11.50;9.35;;;;;;;;;;9979351;28;20045;-45
2023/07/22 14:05:17;;;;;;;10.77;9.00;;;;;;;;;;9980804;28;20058;-43
2023/07/22 14:10:09;;;;;;;10.52;8.63;;;;;;;;;;9970318;28;20456;-45
2023/07/22 14:15:04;;;;;;;10.65;9.50;;;;;;;;;;9980990;28;20043;-45
2023/07/22 14:19:55;;;;;;;10.05;8.75;;;;;;;;;;9990846;28;20049;-43
2023/07/22 14:24:47;;;;;;;11.02;8.52;;;;;;;;;;9981084;28;20056;-45
2023/07/22 14:29:39;;;;;;;10.48;8.48;;;;;;;;;;9989329;28;20046;-44
2023/07/22 14:34:31;;;;;;;10.50;8.70;;;;;;;;;;9989783;28;20038;-45
2023/07/22 14:39:23;;;;;;;10.57;8.57;;;;;;;;;;9982825;28;20074;-44
2023/07/22 14:44:15;;;;;;;8.90;7.88;;;;;;;;;;9982374;28;20047;-44
2023/07/22 14:49:09;;;;;;;10.93;7.00;;;;;;;;;;9979240;28;20042;-44
2023/07/22 14:54:01;;;;;;;9.00;8.20;;;;;;;;;;9985262;28;20047;-45
2023/07/22 14:58:53;;;;;;;10.70;7.05;;;;;;;;;;9982838;28;20138;-42
2023/07/22 15:03:45;;;;;;;8.13;6.85;;;;;;;;;;9979692;28;20085;-46
2023/07/22 15:08:37;;;;;;;8.23;7.43;;;;;;;;;;9984742;28;20352;-43
2023/07/22 15:13:29;;;;;;;7.95;7.15;;;;;;;;;;9982777;28;20054;-47
2023/07/22 15:18:21;;;;;;;10.52;7.30;;;;;;;;;;9976631;28;20477;-45
2023/07/22 15:23:12;;;;;;;8.13;7.07;;;;;;;;;;9979270;28;20050;-46
2023/07/22 15:28:04;;;;;;;8.73;7.78;;;;;;;;;;9977636;28;20043;-44
2023/07/22 15:32:56;;;;;;;8.40;7.10;;;;;;;;;;9985878;28;20042;-45
2023/07/22 15:37:48;;;;;;;8.70;7.50;;;;;;;;;;9974361;28;20445;-45
2023/07/22 15:42:40;;;;;;;7.50;6.78;;;;;;;;;;9975342;28;20066;-45
2023/07/22 15:47:32;;;;;;;8.30;6.93;;;;;;;;;;9986832;28;20163;-44
2023/07/22 15:52:24;;;;;;;8.50;6.68;;;;;;;;;;9965564;28;20551;-44
2023/07/22 15:57:16;;;;;;;6.55;5.90;;;;;;;;;;9969429;28;20061;-44
2023/07/22 16:02:08;;;;;;;7.82;7.13;;;;;;;;;;9952112;28;20066;-44
2023/07/22 16:07:00;;;;;;;8.27;6.45;;;;;;;;;;9957043;28;20420;-44
2023/07/22 16:11:52;;;;;;;7.47;6.72;;;;;;;;;;9954684;28;20062;-44
2023/07/22 16:16:44;;;;;;;7.10;6.38;;;;;;;;;;9963753;28;20055;-46
2023/07/22 16:21:36;;;;;;;7.25;6.38;;;;;;;;;;9962630;28;20050;-43
2023/07/22 16:26:28;;;;;;;9.25;6.55;;;;;;;;;;9951755;28;20038;-45
2023/07/22 16:31:20;;;;;;;7.45;5.68;;;;;;;;;;9960584;28;20447;-48
2023/07/22 16:36:11;;;;;;;10.27;6.38;;;;;;;;;;9967740;28;20042;-51
2023/07/22 16:41:04;;;;;;;12.80;6.63;;;;;;;;;;9947886;28;20125;-47
2023/07/22 16:45:55;;;;;;;8.85;5.55;;;;;;;;;;9952811;28;20579;-46
2023/07/22 16:50:47;;;;;;;11.65;6.53;;;;;;;;;;9950836;28;20135;-45
2023/07/22 16:55:40;;;;;;;12.35;7.15;;;;;;;;;;9953566;28;20049;-42
2023/07/22 17:00:32;;;;;;;11.07;6.63;;;;;;;;;;9962776;28;20039;-46
2023/07/22 17:05:24;;;;;;;7.85;6.47;;;;;;;;;;9953864;28;20054;-46
2023/07/22 17:10:16;;;;;;;11.60;6.38;;;;;;;;;;9951330;28;20051;-47
2023/07/22 17:15:09;;;;;;;8.23;6.57;;;;;;;;;;9964652;28;20039;-45
2023/07/22 17:20:01;;;;;;;9.25;6.90;;;;;;;;;;9967116;28;20121;-46
2023/07/22 17:24:52;;;;;;;10.13;5.85;;;;;;;;;;9964859;28;20477;-45
2023/07/22 17:29:44;;;;;;;10.60;6.72;;;;;;;;;;9946141;28;20058;-46
2023/07/22 17:34:36;;;;;;;9.18;6.55;;;;;;;;;;9962602;28;20054;-45
2023/07/22 17:39:29;;;;;;;9.07;6.30;;;;;;;;;;9968788;28;20142;-48
2023/07/22 17:44:21;;;;;;;7.03;5.50;;;;;;;;;;9966493;28;20233;-45
2023/07/22 17:49:13;;;;;;;9.18;5.93;;;;;;;;;;9974229;28;20464;-47
2023/07/22 17:54:04;;;;;;;12.02;6.03;;;;;;;;;;9978275;28;20050;-48
2023/07/22 17:58:57;;;;;;;11.00;5.78;;;;;;;;;;9957658;28;20085;-44
2023/07/22 18:03:48;;;;;;;7.00;6.00;;;;;;;;;;9971055;28;20070;-44
2023/07/22 18:08:40;;;;;;;9.00;5.50;;;;;;;;;;9955725;28;20129;-45
2023/07/22 18:13:32;;;;;;;8.90;6.00;;;;;;;;;;9979666;28;20499;-44
2023/07/22 18:18:24;;;;;;;6.93;6.00;;;;;;;;;;9985811;28;20680;-45
2023/07/22 18:23:16;;;;;;;8.23;5.88;;;;;;;;;;9980654;28;20054;-46
2023/07/22 18:28:08;;;;;;;8.60;6.63;;;;;;;;;;9974336;28;20034;-46
2023/07/22 18:32:59;;;;;;;7.05;5.47;;;;;;;;;;9976950;28;20116;-44
2023/07/22 18:38:44;;;;;;;7.75;5.80;;;;;;;;;;10005816;23;20057;-72
2023/07/22 18:43:38;;;;;;;7.03;5.65;;;;;;;;;;9956905;28;20086;-73
2023/07/22 18:48:32;;;;;;;9.85;5.70;;;;;;;;;;9952382;28;20174;-72
2023/07/22 18:53:26;;;;;;;11.20;5.65;;;;;;;;;;9968328;28;20053;-73
2023/07/22 18:58:20;;;;;;;7.75;6.25;;;;;;;;;;9953722;28;20150;-73
2023/07/22 19:03:14;;;;;;;10.52;5.70;;;;;;;;;;9930244;28;20039;-73
2023/07/22 19:08:08;;;;;;;6.70;5.35;;;;;;;;;;9954441;28;20126;-73
2023/07/22 19:13:06;;;;;;;;;;;;;;;;;;9955054;28;20123;-73
2023/07/22 19:18:00;;;;;;;7.93;5.13;;;;;;;;;;9940000;28;20698;-73
2023/07/22 19:22:55;;;;;;;7.38;4.80;;;;;;;;;;9936804;28;20145;-73
2023/07/22 19:27:49;;;;;;;6.97;5.85;;;;;;;;;;9944793;28;20058;-73
2023/07/22 19:32:43;;;;;;;9.10;5.38;;;;;;;;;;9963004;28;20081;-73
2023/07/22 19:37:37;;;;;;;6.90;5.00;;;;;;;;;;9949817;28;20073;-73
2023/07/22 19:42:31;;;;;;;6.10;5.28;;;;;;;;;;9950024;28;20054;-73
2023/07/22 19:47:26;;;;;;;7.55;5.03;;;;;;;;;;9929930;28;20546;-73
2023/07/22 19:52:20;;;;;;;8.77;5.47;;;;;;;;;;9936641;28;20050;-72
2023/07/22 19:57:14;;;;;;;8.30;5.65;;;;;;;;;;9939553;28;20613;-72
2023/07/22 20:02:09;;;;;;;7.00;5.10;;;;;;;;;;9946919;28;20101;-73
2023/07/22 20:07:02;;;;;;;5.15;4.40;;;;;;;;;;9944816;28;20051;-72
2023/07/22 20:11:56;;;;;;;5.40;4.28;;;;;;;;;;9943465;28;20051;-72
2023/07/22 20:16:50;;;;;;;12.52;4.70;;;;;;;;;;9925721;28;20035;-72
2023/07/22 20:21:44;;;;;;;6.20;5.05;;;;;;;;;;9943836;28;20058;-72
2023/07/22 20:26:39;;;;;;;10.38;5.40;;;;;;;;;;9947003;28;20129;-72
2023/07/22 20:31:33;;;;;;;7.63;4.43;;;;;;;;;;9947073;28;20071;-72
2023/07/22 20:36:28;;;;;;;8.48;5.40;;;;;;;;;;9942091;28;20117;-72
2023/07/22 20:41:21;;;;;;;8.27;5.47;;;;;;;;;;9946927;28;20063;-73
2023/07/22 20:46:16;;;;;;;10.45;4.82;;;;;;;;;;9948086;28;20113;-72
2023/07/22 20:51:10;;;;;;;7.18;5.43;;;;;;;;;;9925194;28;20046;-74
2023/07/22 20:56:06;;;;;;;9.80;5.07;;;;;;;;;;9933232;28;20043;-72
2023/07/22 21:01:01;;;;;;;5.40;4.30;;;;;;;;;;9944194;28;20051;-73
2023/07/22 21:05:59;;;;;;;5.97;4.93;;;;;;;;;;9946457;28;20043;-72
2023/07/22 21:10:53;;;;;;;7.05;5.50;;;;;;;;;;9945523;28;20552;-72
2023/07/22 21:15:48;;;;;;;5.28;4.53;;;;;;;;;;9934819;28;20085;-74
2023/07/22 21:20:42;;;;;;;6.40;5.40;;;;;;;;;;9947865;28;20101;-72
2023/07/22 21:25:36;;;;;;;7.47;4.57;;;;;;;;;;9941171;28;20172;-71
2023/07/22 21:30:30;;;;;;;5.57;4.82;;;;;;;;;;9942294;28;20066;-72
2023/07/22 21:35:24;;;;;;;7.70;4.53;;;;;;;;;;9952432;28;20047;-72
2023/07/22 21:40:18;;;;;;;6.93;4.80;;;;;;;;;;9954704;28;20510;-71
2023/07/22 21:45:12;;;;;;;7.22;4.40;;;;;;;;;;9941978;28;20051;-73
2023/07/22 21:50:08;;;;;;;8.98;5.45;;;;;;;;;;9954879;28;20043;-73
2023/07/22 21:55:03;;;;;;;8.20;4.68;;;;;;;;;;9949981;28;20050;-73
2023/07/22 21:59:57;;;;;;;7.13;5.13;;;;;;;;;;9953578;28;20065;-72
2023/07/22 22:04:52;;;;;;;5.63;4.78;;;;;;;;;;9954542;28;20054;-72
2023/07/22 22:09:45;;;;;;;5.22;3.85;;;;;;;;;;9953556;28;20046;-73
2023/07/22 22:14:39;;;;;;;5.07;3.88;;;;;;;;;;9952519;28;20502;-73
2023/07/22 22:19:33;;;;;;;5.68;5.07;;;;;;;;;;9954192;28;20051;-73
2023/07/22 22:24:29;;;;;;;5.80;4.63;;;;;;;;;;9953913;28;20417;-73
2023/07/22 22:29:24;;;;;;;4.72;4.18;;;;;;;;;;9950235;28;20070;-73
2023/07/22 22:34:19;;;;;;;5.22;4.72;;;;;;;;;;9933066;28;20059;-72
2023/07/22 22:39:13;;;;;;;4.90;4.20;;;;;;;;;;9949816;28;20055;-72
2023/07/22 22:44:07;;;;;;;5.18;4.03;;;;;;;;;;9950322;28;20050;-72
2023/07/22 22:49:01;;;;;;;6.05;4.32;;;;;;;;;;9948996;28;20039;-72
2023/07/22 22:53:55;;;;;;;5.95;4.72;;;;;;;;;;9950106;28;20105;-73
2023/07/22 22:58:50;;;;;;;4.95;4.15;;;;;;;;;;9939967;28;20451;-73
2023/07/22 23:03:44;;;;;;;4.57;4.07;;;;;;;;;;9949237;28;20047;-73
2023/07/22 23:08:39;;;;;;;4.80;4.22;;;;;;;;;;9939422;28;20061;-73
2023/07/22 23:13:34;;;;;;;5.47;4.50;;;;;;;;;;9951579;28;20089;-74
2023/07/22 23:18:28;;;;;;;6.47;4.40;;;;;;;;;;9943721;28;20502;-73
2023/07/22 23:23:22;;;;;;;13.23;6.18;;;;;;;;;;9945145;28;20051;-73
2023/07/22 23:28:17;;;;;;;5.25;4.32;;;;;;;;;;9947717;28;20053;-73
2023/07/22 23:33:12;;;;;;;4.40;3.88;;;;;;;;;;9948038;28;20102;-73
2023/07/22 23:38:07;;;;;;;5.10;4.43;;;;;;;;;;9940813;28;20184;-72
2023/07/22 23:43:01;;;;;;;4.13;3.67;;;;;;;;;;9951441;28;20055;-72
2023/07/22 23:47:55;;;;;;;5.40;4.07;;;;;;;;;;9950939;28;20046;-72
2023/07/22 23:52:50;;;;;;;3.85;3.45;;;;;;;;;;9948599;28;20058;-73
2023/07/22 23:57:45;;;;;;;5.22;4.15;;;;;;;;;;9945713;28;20055;-73
